Latest Weather Observations for Nuriootpa

IDS60801

Issued at 3:01 pm CST Sunday 20 August 2017 (issued every 30 minutes, with the page automatically refreshed every 10 minutes)

About weather observations | Map of weather stations | Latest weather observations for SA | Other Formats
Station Details ID: 023373 Name: NURIOOTPA PIRSA Lat: -34.48 Lon: 139.01 Height: 275.0 m
Data from the previous 72 hours. | See also: Recent months at Nuriootpa
Date/Time
CST
Temp
°C
App
Temp
°C
Dew
Point
°C
Rel
Hum
%
Delta-T
°C
Wind Press
QNH
hPa
Press
MSL
hPa
Rain since
9am
mm
Dir  Spd
km/h
Gust
km/h
Spd
kts
Gust
kts
20/03:00pm 11.9 5.2 -0.8 41 5.2 NNE 24 33 13 18 1015.7 1015.9 0.0
20/02:30pm 11.8 6.6 0.3 45 4.8 NNE 17 22 9 12 1017.0 1017.3 0.0
20/02:00pm 11.2 4.2 -0.2 45 4.7 NE 26 37 14 20 1017.1 1017.4 0.0
20/01:30pm 11.3 4.4 0.2 46 4.6 NE 26 39 14 21 1017.3 1017.6 0.0
20/01:00pm 11.1 4.5 -0.4 45 4.7 NNE 24 35 13 19 1018.9 1019.1 0.0
20/12:30pm 11.0 4.0 -0.2 46 4.6 NNE 26 35 14 19 1019.9 1020.2 0.0
20/12:00pm 11.2 4.3 0.1 46 4.6 NNE 26 35 14 19 1021.0 1021.3 0.0
20/11:51am 11.6 4.3 0.0 45 4.8 NNE 28 46 15 25 1021.4 1021.7 0.0
20/11:30am 11.1 3.4 -0.4 45 4.7 NE 30 41 16 22 1021.6 1021.9 0.0
20/11:00am 10.7 3.8 0.3 48 4.3 NE 26 39 14 21 1022.5 1022.8 0.0
20/10:30am 10.2 2.6 0.5 51 4.0 NNE 30 43 16 23 1022.3 1022.6 0.0
20/10:00am 9.5 2.5 -0.2 51 3.9 NNE 26 35 14 19 1023.3 1023.6 0.0
20/09:30am 8.8 2.7 0.7 57 3.3 NE 22 35 12 19 1023.3 1023.6 0.0
20/09:00am 8.0 2.6 1.2 62 2.8 NE 19 30 10 16 1023.9 1024.2 0.0
20/08:30am 6.6 1.0 0.9 67 2.3 NE 20 30 11 16 1024.0 1024.3 0.0
20/08:00am 5.7 0.6 0.9 71 1.9 NE 17 26 9 14 1024.4 1024.7 0.0
20/07:30am 4.8 0.5 1.0 76 1.5 NE 13 17 7 9 1024.5 1024.8 0.0
20/07:00am 4.6 0.2 0.5 75 1.6 NE 13 19 7 10 1024.4 1024.7 0.0
20/06:30am 3.4 -0.7 0.0 78 1.3 NE 11 15 6 8 1024.4 1024.7 0.0
20/06:00am 3.2 -0.8 0.3 81 1.1 ENE 11 15 6 8 1024.3 1024.6 0.0
20/05:30am 3.5 -0.5 0.4 80 1.2 ENE 11 13 6 7 1024.4 1024.7 0.0
20/05:00am 3.8 -0.6 0.4 78 1.3 ENE 13 17 7 9 1024.7 1025.0 0.0
20/04:30am 4.2 -0.2 0.3 76 1.5 ENE 13 17 7 9 1024.8 1025.1 0.0
20/04:00am 4.5 0.5 0.4 75 1.6 ENE 11 15 6 8 1025.1 1025.4 0.0
20/03:30am 4.7 0.7 0.6 75 1.6 ENE 11 17 6 9 1024.6 1024.9 0.0
20/03:00am 4.3 0.3 0.7 77 1.4 NE 11 15 6 8 1024.9 1025.2 0.0
20/02:30am 4.9 1.3 0.8 75 1.6 ENE 9 11 5 6 1025.4 1025.8 0.0
20/02:00am 5.0 1.5 1.2 76 1.5 ENE 9 13 5 7 1025.7 1026.0 0.0
20/01:30am 4.1 1.1 1.8 85 0.9 E 7 11 4 6 1025.9 1026.2 0.0
20/01:00am 5.1 1.4 2.4 83 1.1 ESE 11 15 6 8 1026.1 1026.4 0.0
20/12:30am 4.5 1.8 2.5 87 0.8 E 6 9 3 5 1026.3 1026.6 0.0
20/12:00am 5.0 2.3 2.8 86 0.9 NE 6 7 3 4 1026.7 1027.0 0.0
 
Date/Time
CST
Temp
°C
App
Temp
°C
Dew
Point
°C
Rel
Hum
%
Delta-T
°C
Wind Press
QNH
hPa
Press
MSL
hPa
Rain since
9am
mm
Dir  Spd
km/h
Gust
km/h
Spd
kts
Gust
kts
19/11:30pm 4.8 2.1 2.9 87 0.8 NE 6 7 3 4 1026.9 1027.2 0.0
19/11:00pm 5.7 2.5 2.8 81 1.2 ESE 9 13 5 7 1027.0 1027.3 0.0
19/10:30pm 6.0 2.4 3.1 82 1.2 ESE 11 17 6 9 1027.1 1027.4 0.0
19/10:00pm 5.8 2.2 2.9 82 1.2 ESE 11 15 6 8 1027.1 1027.4 0.0
19/09:30pm 6.1 3.2 2.7 79 1.4 E 7 11 4 6 1027.3 1027.6 0.0
19/09:00pm 5.9 3.0 2.5 79 1.4 ESE 7 11 4 6 1027.5 1027.8 0.0
19/08:30pm 6.0 3.3 2.6 79 1.4 E 6 11 3 6 1027.5 1027.8 0.0
19/08:00pm 6.3 3.5 3.0 79 1.4 E 7 11 4 6 1027.5 1027.8 0.0
19/07:30pm 6.1 4.3 3.5 83 1.1 E 2 9 1 5 1027.7 1028.0 0.0
19/07:00pm 6.2 4.3 3.1 80 1.3 SW 2 9 1 5 1027.8 1028.1 0.0
19/06:30pm 6.8 5.4 3.3 78 1.5 CALM 0 0 0 0 1027.7 1028.0 0.0
19/06:00pm 8.0 5.4 3.1 71 2.1 E 6 11 3 6 1027.5 1027.8 0.0
19/05:30pm 8.9 7.5 3.4 68 2.4 CALM 0 0 0 0 1027.4 1027.7 0.0
19/05:00pm 10.3 8.0 2.7 59 3.3 ESE 4 7 2 4 1027.2 1027.5 0.0
19/04:30pm 11.6 8.1 1.2 49 4.4 ESE 9 11 5 6 1027.0 1027.3 0.0
19/04:00pm 12.3 8.3 3.1 53 4.1 ESE 13 19 7 10 1027.0 1027.3 0.0
19/03:30pm 12.1 9.5 3.4 55 3.9 ESE 6 9 3 5 1026.8 1027.1 0.0
19/03:00pm 11.7 7.7 3.1 55 3.8 ESE 13 20 7 11 1027.1 1027.4 0.0
19/02:30pm 11.8 8.5 2.7 53 4.0 SE 9 15 5 8 1027.4 1027.7 0.0
19/02:00pm 12.5 9.4 1.3 46 4.8 SSE 7 17 4 9 1027.6 1027.9 0.0
19/01:30pm 11.6 8.3 2.4 53 4.0 SE 9 17 5 9 1027.9 1028.2 0.0
19/01:00pm 12.1 8.4 4.2 58 3.6 SE 13 20 7 11 1028.2 1028.6 0.0
19/12:30pm 12.2 9.3 2.4 51 4.3 SSE 7 13 4 7 1028.6 1029.0 0.0
19/12:00pm 11.6 7.7 1.2 49 4.4 S 11 17 6 9 1029.0 1029.4 0.0
19/11:30am 11.6 7.7 1.2 49 4.4 SE 11 17 6 9 1029.3 1029.7 0.0
19/11:00am 11.3 6.9 0.5 47 4.5 S 13 22 7 12 1029.8 1030.1 0.0
19/10:30am 10.7 6.7 2.9 58 3.4 SSW 13 20 7 11 1029.8 1030.1 0.0
19/10:00am 9.8 6.8 3.9 66 2.6 SSW 9 15 5 8 1029.9 1030.2 0.0
19/09:30am 8.8 7.5 6.0 82 1.3 WNW 2 7 1 4 1030.0 1030.3 0.0
19/09:00am 7.1 5.8 6.0 93 0.5 N 2 7 1 4 1030.0 1030.3 1.2
19/08:30am 5.2 4.1 5.0 99 0.1 CALM 0 0 0 0 1029.7 1030.0 1.2
19/08:00am 3.3 1.9 3.3 100 0.0 CALM 0 0 0 0 1029.4 1029.8 1.2
19/07:30am 1.2 -1.7 1.2 100 0.0 NE 6 6 3 3 1029.0 1029.4 1.2
19/07:00am -0.2 - - - - ENE 6 6 3 3 1028.6 1029.0 1.2
19/06:30am 0.0 - - - - CALM 0 0 0 0 1028.2 1028.6 1.2
19/06:00am 0.1 - - - - CALM 0 0 0 0 1027.8 1028.1 1.2
19/05:30am 0.1 - - - - CALM 0 0 0 0 1027.5 1027.8 1.2
19/05:00am 0.3 -1.6 0.3 100 0.0 CALM 0 0 0 0 1027.2 1027.5 1.0
19/04:30am 0.5 -1.4 0.5 100 0.0 CALM 0 6 0 3 1027.0 1027.3 1.0
19/04:00am 0.6 -1.3 0.6 100 0.0 CALM 0 0 0 0 1026.9 1027.2 1.0
19/03:30am 1.3 -0.5 1.3 100 0.0 CALM 0 0 0 0 1026.8 1027.1 1.0
19/03:00am 1.6 -0.1 1.6 100 0.0 CALM 0 0 0 0 1026.7 1027.0 1.0
19/02:30am 1.8 0.0 1.5 98 0.1 CALM 0 0 0 0 1026.8 1027.1 1.0
19/02:00am 1.9 -0.2 1.9 100 0.0 ENE 2 6 1 3 1026.8 1027.1 1.0
19/01:30am 1.4 -0.8 1.1 98 0.1 ENE 2 9 1 5 1026.8 1027.1 1.0
19/01:00am 2.2 0.5 1.9 98 0.1 CALM 0 0 0 0 1026.7 1027.0 1.0
19/12:30am 2.0 0.3 1.7 98 0.1 CALM 0 0 0 0 1026.6 1026.9 1.0
19/12:00am 2.6 1.0 2.3 98 0.1 CALM 0 0 0 0 1026.7 1027.0 1.0
 
Date/Time
CST
Temp
°C
App
Temp
°C
Dew
Point
°C
Rel
Hum
%
Delta-T
°C
Wind Press
QNH
hPa
Press
MSL
hPa
Rain since
9am
mm
Dir  Spd
km/h
Gust
km/h
Spd
kts
Gust
kts
18/11:30pm 3.7 1.0 3.5 99 0.1 W 7 9 4 5 1026.6 1026.9 1.0
18/11:00pm 3.4 0.8 3.4 100 0.0 SW 6 7 3 4 1026.5 1026.8 1.0
18/10:30pm 4.1 2.8 3.9 99 0.1 CALM 0 0 0 0 1026.5 1026.8 1.0
18/10:00pm 4.9 2.9 4.4 97 0.2 SSW 4 6 2 3 1026.5 1026.8 1.0
18/09:30pm 5.8 3.9 5.1 95 0.3 SSW 4 6 2 3 1026.5 1026.8 1.0
18/09:00pm 6.6 3.9 5.7 94 0.4 WSW 9 13 5 7 1026.3 1026.6 1.0
18/08:30pm 6.5 4.2 5.8 95 0.3 SW 7 9 4 5 1026.2 1026.5 1.0
18/08:00pm 7.4 4.4 6.1 91 0.6 WSW 11 17 6 9 1026.0 1026.3 1.0
18/07:30pm 7.5 3.8 6.4 93 0.5 SW 15 22 8 12 1025.9 1026.2 1.0
18/07:00pm 8.1 4.2 5.5 84 1.2 WSW 15 20 8 11 1025.1 1025.4 0.8
18/06:30pm 8.1 4.3 5.7 85 1.1 W 15 22 8 12 1024.8 1025.1 0.8
18/06:00pm 8.7 3.2 3.9 72 2.1 W 22 32 12 17 1024.4 1024.7 0.8
18/05:30pm 9.6 3.2 3.4 65 2.7 WSW 26 35 14 19 1024.0 1024.3 0.8
18/05:00pm 10.2 3.2 4.2 66 2.7 WSW 30 43 16 23 1023.6 1023.9 0.8
18/04:30pm 10.8 2.7 3.1 59 3.4 WSW 35 48 19 26 1023.4 1023.7 0.8
18/04:12pm 11.0 2.3 2.2 54 3.8 WSW 37 56 20 30 1023.2 1023.5 0.8
18/04:00pm 11.2 2.6 2.8 56 3.7 WSW 37 52 20 28 1023.2 1023.5 0.8
18/03:38pm 10.9 2.7 2.9 58 3.5 WSW 35 54 19 29 1023.2 1023.5 0.8
18/03:30pm 11.0 2.7 4.1 62 3.1 WSW 37 50 20 27 1023.2 1023.5 0.8
18/03:05pm 10.1 1.9 4.6 68 2.5 WSW 37 56 20 30 1023.2 1023.5 0.8
18/03:00pm 9.4 1.0 5.7 78 1.7 WSW 39 56 21 30 1023.3 1023.6 0.8
18/02:30pm 11.4 3.2 2.5 54 3.9 WSW 35 57 19 31 1022.8 1023.1 0.8
18/02:00pm 11.1 3.0 3.2 58 3.5 WSW 35 54 19 29 1022.7 1023.0 0.8
18/01:52pm 10.8 2.7 3.1 59 3.4 W 35 54 19 29 1022.6 1022.9 0.8
18/01:30pm 10.2 1.5 4.2 66 2.7 W 39 52 21 28 1022.6 1022.9 0.8
18/01:08pm 11.6 3.1 3.3 56 3.7 WSW 37 56 20 30 1022.6 1022.9 0.8
18/01:00pm 11.2 1.8 2.2 54 3.9 W 41 57 22 31 1022.6 1022.9 0.8
18/12:45pm 10.9 3.1 5.0 67 2.7 W 35 54 19 29 1022.5 1022.8 0.8
18/12:30pm 10.4 3.2 6.1 75 2.0 W 33 50 18 27 1022.7 1023.0 0.8
18/12:00pm 8.4 -0.1 5.1 80 1.5 WSW 39 50 21 27 1023.1 1023.4 0.6
18/11:33am 11.2 3.7 3.3 58 3.5 WSW 32 56 17 30 1022.7 1023.0 0.2
18/11:30am 10.7 3.3 4.0 63 3.0 WSW 32 46 17 25 1022.7 1023.0 0.2
18/11:17am 10.8 2.3 3.1 59 3.4 WSW 37 57 20 31 1022.6 1022.9 0.2
18/11:00am 11.0 3.8 4.9 66 2.8 WSW 32 46 17 25 1022.6 1022.9 0.2
18/10:30am 9.8 2.7 5.7 75 1.9 W 32 44 17 24 1022.5 1022.8 0.2
18/10:00am 9.7 2.7 5.8 77 1.8 W 32 46 17 25 1022.3 1022.6 0.2
18/09:30am 8.2 2.0 6.0 86 1.0 W 28 48 15 26 1022.0 1022.2 0.2
18/09:00am 8.1 3.1 6.4 89 0.8 W 22 33 12 18 1021.7 1022.0 6.4
18/08:30am 7.4 3.2 5.9 90 0.7 W 17 28 9 15 1020.9 1021.2 6.4
18/08:00am 7.1 2.6 6.0 93 0.5 W 19 30 10 16 1020.1 1020.4 6.2
18/07:30am 6.6 2.0 5.7 94 0.4 W 19 24 10 13 1019.8 1020.1 6.2
18/07:00am 6.5 1.3 5.6 94 0.4 W 22 37 12 20 1019.4 1019.7 6.2
18/06:30am 6.7 1.8 5.1 89 0.7 W 20 28 11 15 1018.6 1018.8 6.0
18/06:00am 6.7 1.5 5.4 91 0.6 W 22 32 12 17 1017.8 1018.1 6.0
18/05:30am 7.0 0.2 5.0 87 0.9 W 30 39 16 21 1017.3 1017.6 6.0
18/05:00am 6.6 0.6 5.3 91 0.6 W 26 35 14 19 1017.0 1017.3 6.0
18/04:30am 6.7 -0.1 5.1 89 0.7 W 30 39 16 21 1016.6 1016.9 6.0
18/04:00am 6.9 0.1 5.1 88 0.8 W 30 39 16 21 1016.2 1016.5 6.0
18/03:30am 6.7 -0.4 5.4 91 0.6 W 32 39 17 21 1016.1 1016.4 6.0
18/03:00am 6.8 0.5 5.7 93 0.5 W 28 37 15 20 1016.2 1016.5 6.0
18/02:30am 7.1 -0.2 5.3 88 0.8 W 33 48 18 26 1016.1 1016.4 5.8
18/02:07am 7.0 -0.3 5.4 89 0.7 WNW 33 54 18 29 1016.0 1016.3 5.8
18/02:00am 7.0 -0.4 5.0 87 0.9 WNW 33 46 18 25 1015.7 1015.9 5.8
18/01:30am 7.2 -0.1 4.7 84 1.1 WNW 32 44 17 24 1015.6 1015.8 5.8
18/01:00am 7.0 -1.0 4.0 81 1.3 W 35 50 19 27 1015.4 1015.6 5.8
18/12:30am 7.1 -0.7 5.1 87 0.9 W 35 50 19 27 1015.1 1015.3 5.8
18/12:07am 7.0 -0.7 5.4 89 0.7 WNW 35 54 19 29 1014.9 1015.1 5.8
18/12:00am 6.8 -0.3 5.5 91 0.6 WNW 32 44 17 24 1014.9 1015.1 5.8
 
Date/Time
CST
Temp
°C
App
Temp
°C
Dew
Point
°C
Rel
Hum
%
Delta-T
°C
Wind Press
QNH
hPa
Press
MSL
hPa
Rain since
9am
mm
Dir  Spd
km/h
Gust
km/h
Spd
kts
Gust
kts
17/11:30pm 6.6 0.5 5.0 89 0.7 WNW 26 35 14 19 1014.7 1014.9 5.8
17/11:00pm 6.8 0.0 5.2 89 0.7 WNW 30 41 16 22 1014.5 1014.7 5.8
17/10:30pm 7.2 0.6 5.9 91 0.6 WNW 30 43 16 23 1014.0 1014.3 5.8
17/10:15pm 7.3 0.3 5.8 90 0.7 WNW 32 50 17 27 1014.3 1014.5 5.6
17/10:00pm 7.3 1.0 5.8 90 0.7 WNW 28 41 15 22 1013.9 1014.2 5.6
17/09:30pm 7.4 0.3 5.4 87 0.9 WNW 32 44 17 24 1013.8 1014.1 5.6
17/09:00pm 7.0 -1.3 4.3 83 1.2 WNW 37 48 20 26 1013.6 1013.9 5.6
17/08:30pm 7.2 -2.1 5.0 86 1.0 W 43 63 23 34 1013.3 1013.6 4.8
17/08:22pm 8.1 0.8 5.5 84 1.2 WNW 33 52 18 28 1013.2 1013.5 3.6
17/08:00pm 8.4 1.4 5.8 84 1.2 WNW 32 43 17 23 1012.8 1013.0 3.4
17/07:30pm 8.2 1.2 6.0 86 1.0 W 32 43 17 23 1012.4 1012.6 3.4
17/07:00pm 8.0 0.9 5.4 84 1.2 W 32 48 17 26 1012.0 1012.2 3.4
17/06:30pm 8.3 0.5 6.6 89 0.8 W 37 52 20 28 1011.7 1011.9 3.4
17/06:13pm 8.4 2.3 6.5 88 0.9 WNW 28 46 15 25 1011.4 1011.6 3.0
17/06:00pm 8.3 1.3 6.1 86 1.0 WNW 32 46 17 25 1011.0 1011.2 3.0
17/05:30pm 8.0 -1.1 6.1 88 0.9 W 43 63 23 34 1011.0 1011.2 3.0
17/05:17pm 8.9 1.5 6.8 87 1.0 W 35 54 19 29 1010.8 1011.0 2.4
17/05:00pm 9.7 2.8 6.5 80 1.5 W 32 46 17 25 1010.0 1010.3 1.8
17/04:43pm 10.1 4.0 6.8 80 1.6 W 28 48 15 26 1009.7 1009.9 1.8
17/04:30pm 10.6 3.7 7.1 79 1.7 WNW 33 46 18 25 1009.4 1009.6 1.8
17/04:00pm 10.5 3.4 7.9 84 1.3 WNW 35 52 19 28 1009.6 1009.8 1.8
17/03:30pm 10.2 1.8 7.3 82 1.4 W 41 59 22 32 1009.3 1009.5 1.6

Other Formats:

Comma delimited format used in spreadsheet applications
http://www.bom.gov.au/fwo/IDS60801/IDS60801.94681.axf

JavaScript Object Notation format (JSON) in row-major order
http://www.bom.gov.au/fwo/IDS60801/IDS60801.94681.json